Nyssa, Oregon
Current Conditions -  °F | °C
As of 11:53 AM on Thursday 23 Oct 2014 (Local Time) from KONO Reporting Station
Light Rain Light Rain  
Wind Chill: 56°   Ceiling: 7000
Heat Index: 56°   Visibility: 10mi
Dew Point: 47°   Wind: 5mph
Humidity: 72%   Direction: 150°SSE
Pressure: 30.05"   Gusts: NA
Location:  43.88°N, 116.99°W
Report Text: KONO 231753Z AUTO 15004KT 10SM -RA FEW049 SCT060 OVC070 13/08 A3005 RMK AO2 RAB28 SLP174 P0000 60001 T01330083 10139 20100 53015
Loading
Personal Weather Stations






























Interactive Weather Map
Tropical Storm Tracking
New forecast layout! Learn more

10-Day Weather Forecast

Advertisements
Track Severe Weather on mobile